sensor_id;sensor_type;location;lat;lon;timestamp;P1;durP1;ratioP1;P2;durP2;ratioP2
11076;SDS011;5591;42.626;23.380;2022-07-23T00:01:19;6.83;;;4.50;;
11076;SDS011;5591;42.626;23.380;2022-07-23T00:03:46;6.73;;;4.70;;
11076;SDS011;5591;42.626;23.380;2022-07-23T00:06:12;5.17;;;4.67;;
11076;SDS011;5591;42.626;23.380;2022-07-23T00:08:39;10.07;;;4.57;;
11076;SDS011;5591;42.626;23.380;2022-07-23T00:11:08;7.70;;;4.77;;
11076;SDS011;5591;42.626;23.380;2022-07-23T00:13:35;7.60;;;4.93;;
11076;SDS011;5591;42.626;23.380;2022-07-23T00:16:02;9.40;;;4.60;;
11076;SDS011;5591;42.626;23.380;2022-07-23T00:18:29;7.90;;;4.80;;
11076;SDS011;5591;42.626;23.380;2022-07-23T00:20:56;6.87;;;4.73;;
11076;SDS011;5591;42.626;23.380;2022-07-23T00:23:22;7.27;;;5.90;;
11076;SDS011;5591;42.626;23.380;2022-07-23T00:25:50;6.17;;;4.73;;
11076;SDS011;5591;42.626;23.380;2022-07-23T00:28:19;8.70;;;5.20;;
11076;SDS011;5591;42.626;23.380;2022-07-23T00:30:45;6.93;;;5.37;;
11076;SDS011;5591;42.626;23.380;2022-07-23T00:33:12;7.30;;;5.50;;
11076;SDS011;5591;42.626;23.380;2022-07-23T00:35:39;6.67;;;4.77;;
11076;SDS011;5591;42.626;23.380;2022-07-23T00:38:07;9.10;;;5.17;;
11076;SDS011;5591;42.626;23.380;2022-07-23T00:40:35;13.67;;;5.50;;
11076;SDS011;5591;42.626;23.380;2022-07-23T00:43:03;8.80;;;5.70;;
11076;SDS011;5591;42.626;23.380;2022-07-23T00:45:31;8.77;;;5.17;;
11076;SDS011;5591;42.626;23.380;2022-07-23T00:47:58;10.30;;;5.30;;
11076;SDS011;5591;42.626;23.380;2022-07-23T00:50:25;7.80;;;5.43;;
11076;SDS011;5591;42.626;23.380;2022-07-23T00:52:53;7.23;;;5.33;;
11076;SDS011;5591;42.626;23.380;2022-07-23T00:55:21;7.67;;;6.23;;
11076;SDS011;5591;42.626;23.380;2022-07-23T00:57:48;8.53;;;4.83;;
11076;SDS011;5591;42.626;23.380;2022-07-23T01:00:16;7.77;;;5.37;;
11076;SDS011;5591;42.626;23.380;2022-07-23T01:02:45;6.73;;;5.27;;
11076;SDS011;5591;42.626;23.380;2022-07-23T01:05:11;7.17;;;6.23;;
11076;SDS011;5591;42.626;23.380;2022-07-23T01:07:38;8.70;;;5.70;;
11076;SDS011;5591;42.626;23.380;2022-07-23T01:10:06;7.90;;;5.73;;
11076;SDS011;5591;42.626;23.380;2022-07-23T01:12:53;10.63;;;8.23;;
11076;SDS011;5591;42.626;23.380;2022-07-23T01:15:20;11.43;;;7.27;;
11076;SDS011;5591;42.626;23.380;2022-07-23T01:17:49;6.00;;;5.40;;
11076;SDS011;5591;42.626;23.380;2022-07-23T01:20:16;7.43;;;6.43;;
11076;SDS011;5591;42.626;23.380;2022-07-23T01:22:44;8.80;;;5.80;;
11076;SDS011;5591;42.626;23.380;2022-07-23T01:25:11;6.97;;;5.03;;
11076;SDS011;5591;42.626;23.380;2022-07-23T01:27:38;11.53;;;5.23;;
11076;SDS011;5591;42.626;23.380;2022-07-23T01:30:05;7.63;;;5.80;;
11076;SDS011;5591;42.626;23.380;2022-07-23T01:32:33;10.87;;;5.27;;
11076;SDS011;5591;42.626;23.380;2022-07-23T01:35:00;8.67;;;5.33;;
11076;SDS011;5591;42.626;23.380;2022-07-23T01:37:26;8.40;;;5.10;;
11076;SDS011;5591;42.626;23.380;2022-07-23T01:39:55;8.17;;;5.10;;
11076;SDS011;5591;42.626;23.380;2022-07-23T01:42:22;7.83;;;5.30;;
11076;SDS011;5591;42.626;23.380;2022-07-23T01:44:49;8.13;;;4.70;;
11076;SDS011;5591;42.626;23.380;2022-07-23T01:47:15;7.07;;;5.10;;
11076;SDS011;5591;42.626;23.380;2022-07-23T01:49:43;9.23;;;4.93;;
11076;SDS011;5591;42.626;23.380;2022-07-23T01:52:09;8.90;;;4.93;;
11076;SDS011;5591;42.626;23.380;2022-07-23T01:54:37;5.43;;;4.93;;
11076;SDS011;5591;42.626;23.380;2022-07-23T01:57:06;6.03;;;5.43;;
11076;SDS011;5591;42.626;23.380;2022-07-23T01:59:34;9.43;;;5.27;;
11076;SDS011;5591;42.626;23.380;2022-07-23T02:02:01;7.30;;;5.30;;
11076;SDS011;5591;42.626;23.380;2022-07-23T02:04:28;8.27;;;5.40;;
11076;SDS011;5591;42.626;23.380;2022-07-23T02:06:55;6.60;;;5.23;;
11076;SDS011;5591;42.626;23.380;2022-07-23T02:09:22;8.17;;;5.60;;
11076;SDS011;5591;42.626;23.380;2022-07-23T02:11:49;5.93;;;5.33;;
11076;SDS011;5591;42.626;23.380;2022-07-23T02:14:17;9.40;;;5.10;;
11076;SDS011;5591;42.626;23.380;2022-07-23T02:16:44;9.80;;;5.27;;
11076;SDS011;5591;42.626;23.380;2022-07-23T02:19:10;7.73;;;5.27;;
11076;SDS011;5591;42.626;23.380;2022-07-23T02:21:37;9.43;;;5.60;;
11076;SDS011;5591;42.626;23.380;2022-07-23T02:24:04;12.93;;;6.47;;
11076;SDS011;5591;42.626;23.380;2022-07-23T02:26:31;9.63;;;5.80;;
11076;SDS011;5591;42.626;23.380;2022-07-23T02:28:59;9.90;;;5.93;;
11076;SDS011;5591;42.626;23.380;2022-07-23T02:31:28;7.73;;;5.10;;
11076;SDS011;5591;42.626;23.380;2022-07-23T02:33:55;8.43;;;5.00;;
11076;SDS011;5591;42.626;23.380;2022-07-23T02:36:22;11.60;;;6.10;;
11076;SDS011;5591;42.626;23.380;2022-07-23T02:38:49;7.70;;;5.10;;
11076;SDS011;5591;42.626;23.380;2022-07-23T02:41:16;7.83;;;5.27;;
11076;SDS011;5591;42.626;23.380;2022-07-23T02:43:43;9.70;;;5.30;;
11076;SDS011;5591;42.626;23.380;2022-07-23T02:46:10;8.13;;;5.30;;
11076;SDS011;5591;42.626;23.380;2022-07-23T02:48:38;9.90;;;5.50;;
11076;SDS011;5591;42.626;23.380;2022-07-23T02:51:05;11.97;;;5.83;;
11076;SDS011;5591;42.626;23.380;2022-07-23T02:53:31;11.00;;;5.33;;
11076;SDS011;5591;42.626;23.380;2022-07-23T02:55:58;7.40;;;5.00;;
11076;SDS011;5591;42.626;23.380;2022-07-23T02:58:25;7.40;;;5.43;;
11076;SDS011;5591;42.626;23.380;2022-07-23T03:00:52;7.73;;;5.10;;
11076;SDS011;5591;42.626;23.380;2022-07-23T03:03:19;6.53;;;5.00;;
11076;SDS011;5591;42.626;23.380;2022-07-23T03:05:47;11.47;;;5.73;;
11076;SDS011;5591;42.626;23.380;2022-07-23T03:08:14;6.07;;;5.40;;
11076;SDS011;5591;42.626;23.380;2022-07-23T03:10:41;15.10;;;5.70;;
11076;SDS011;5591;42.626;23.380;2022-07-23T03:13:07;7.73;;;5.47;;
11076;SDS011;5591;42.626;23.380;2022-07-23T03:15:34;11.70;;;5.57;;
11076;SDS011;5591;42.626;23.380;2022-07-23T03:18:01;8.67;;;5.20;;
11076;SDS011;5591;42.626;23.380;2022-07-23T03:20:28;7.50;;;5.10;;
11076;SDS011;5591;42.626;23.380;2022-07-23T03:22:56;8.67;;;5.43;;
11076;SDS011;5591;42.626;23.380;2022-07-23T03:25:23;7.77;;;5.53;;
11076;SDS011;5591;42.626;23.380;2022-07-23T03:27:49;5.83;;;5.27;;
11076;SDS011;5591;42.626;23.380;2022-07-23T03:30:16;10.20;;;9.10;;
11076;SDS011;5591;42.626;23.380;2022-07-23T03:32:43;13.30;;;8.00;;
11076;SDS011;5591;42.626;23.380;2022-07-23T03:35:10;8.80;;;6.20;;
11076;SDS011;5591;42.626;23.380;2022-07-23T03:37:37;9.33;;;6.00;;
11076;SDS011;5591;42.626;23.380;2022-07-23T03:40:06;9.17;;;5.53;;
11076;SDS011;5591;42.626;23.380;2022-07-23T03:42:33;9.63;;;5.43;;
11076;SDS011;5591;42.626;23.380;2022-07-23T03:45:02;6.20;;;5.47;;
11076;SDS011;5591;42.626;23.380;2022-07-23T03:47:29;8.00;;;5.93;;
11076;SDS011;5591;42.626;23.380;2022-07-23T03:49:56;5.47;;;4.97;;
11076;SDS011;5591;42.626;23.380;2022-07-23T03:52:23;7.13;;;6.03;;
11076;SDS011;5591;42.626;23.380;2022-07-23T03:54:49;8.10;;;5.60;;
11076;SDS011;5591;42.626;23.380;2022-07-23T03:57:18;12.53;;;5.60;;
11076;SDS011;5591;42.626;23.380;2022-07-23T03:59:44;8.40;;;5.60;;
11076;SDS011;5591;42.626;23.380;2022-07-23T04:02:11;9.57;;;5.63;;
11076;SDS011;5591;42.626;23.380;2022-07-23T04:04:38;8.23;;;5.63;;
11076;SDS011;5591;42.626;23.380;2022-07-23T04:07:05;10.90;;;6.20;;
11076;SDS011;5591;42.626;23.380;2022-07-23T04:09:32;12.93;;;6.20;;
11076;SDS011;5591;42.626;23.380;2022-07-23T04:12:00;10.57;;;5.50;;
11076;SDS011;5591;42.626;23.380;2022-07-23T04:14:28;9.77;;;5.97;;
11076;SDS011;5591;42.626;23.380;2022-07-23T04:16:55;10.77;;;6.30;;
11076;SDS011;5591;42.626;23.380;2022-07-23T04:19:22;10.20;;;6.00;;
11076;SDS011;5591;42.626;23.380;2022-07-23T04:21:48;14.43;;;6.00;;
11076;SDS011;5591;42.626;23.380;2022-07-23T04:24:15;8.50;;;5.73;;
11076;SDS011;5591;42.626;23.380;2022-07-23T04:26:42;8.43;;;5.43;;
11076;SDS011;5591;42.626;23.380;2022-07-23T04:29:10;10.80;;;6.00;;
11076;SDS011;5591;42.626;23.380;2022-07-23T04:31:38;10.23;;;5.97;;
11076;SDS011;5591;42.626;23.380;2022-07-23T04:34:05;7.50;;;5.43;;
11076;SDS011;5591;42.626;23.380;2022-07-23T04:36:31;6.57;;;5.43;;
11076;SDS011;5591;42.626;23.380;2022-07-23T04:38:58;8.27;;;5.93;;
11076;SDS011;5591;42.626;23.380;2022-07-23T04:41:25;14.40;;;6.17;;
11076;SDS011;5591;42.626;23.380;2022-07-23T04:43:52;16.37;;;5.53;;
11076;SDS011;5591;42.626;23.380;2022-07-23T04:46:18;7.20;;;5.80;;
11076;SDS011;5591;42.626;23.380;2022-07-23T04:48:47;9.73;;;5.97;;
11076;SDS011;5591;42.626;23.380;2022-07-23T04:51:13;11.10;;;5.87;;
11076;SDS011;5591;42.626;23.380;2022-07-23T04:53:40;11.67;;;5.93;;
11076;SDS011;5591;42.626;23.380;2022-07-23T04:56:07;11.60;;;5.50;;
11076;SDS011;5591;42.626;23.380;2022-07-23T04:58:34;12.07;;;6.00;;
11076;SDS011;5591;42.626;23.380;2022-07-23T05:01:01;9.90;;;6.27;;
11076;SDS011;5591;42.626;23.380;2022-07-23T05:03:28;10.13;;;8.80;;
11076;SDS011;5591;42.626;23.380;2022-07-23T05:05:56;12.83;;;8.40;;
11076;SDS011;5591;42.626;23.380;2022-07-23T05:08:23;8.57;;;6.93;;
11076;SDS011;5591;42.626;23.380;2022-07-23T05:10:49;10.60;;;7.00;;
11076;SDS011;5591;42.626;23.380;2022-07-23T05:13:16;8.13;;;6.90;;
11076;SDS011;5591;42.626;23.380;2022-07-23T05:15:43;16.00;;;14.00;;
11076;SDS011;5591;42.626;23.380;2022-07-23T05:18:11;10.20;;;6.73;;
11076;SDS011;5591;42.626;23.380;2022-07-23T05:20:38;12.63;;;7.07;;
11076;SDS011;5591;42.626;23.380;2022-07-23T05:23:06;8.53;;;6.90;;
11076;SDS011;5591;42.626;23.380;2022-07-23T05:25:33;10.50;;;6.50;;
11076;SDS011;5591;42.626;23.380;2022-07-23T05:28:00;12.53;;;7.57;;
11076;SDS011;5591;42.626;23.380;2022-07-23T05:30:27;8.83;;;6.70;;
11076;SDS011;5591;42.626;23.380;2022-07-23T05:32:53;11.90;;;7.33;;
11076;SDS011;5591;42.626;23.380;2022-07-23T05:35:20;12.87;;;11.07;;
11076;SDS011;5591;42.626;23.380;2022-07-23T05:37:47;10.23;;;8.80;;
11076;SDS011;5591;42.626;23.380;2022-07-23T05:40:15;12.27;;;7.63;;
11076;SDS011;5591;42.626;23.380;2022-07-23T05:42:42;22.73;;;17.93;;
11076;SDS011;5591;42.626;23.380;2022-07-23T05:45:10;16.43;;;9.30;;
11076;SDS011;5591;42.626;23.380;2022-07-23T05:47:40;17.00;;;13.00;;
11076;SDS011;5591;42.626;23.380;2022-07-23T05:50:08;13.47;;;9.20;;
11076;SDS011;5591;42.626;23.380;2022-07-23T05:52:36;9.27;;;6.80;;
11076;SDS011;5591;42.626;23.380;2022-07-23T05:55:03;14.03;;;7.37;;
11076;SDS011;5591;42.626;23.380;2022-07-23T05:57:32;8.70;;;7.67;;
11076;SDS011;5591;42.626;23.380;2022-07-23T05:59:59;8.97;;;7.00;;
11076;SDS011;5591;42.626;23.380;2022-07-23T06:02:25;13.00;;;8.17;;
11076;SDS011;5591;42.626;23.380;2022-07-23T06:04:52;20.30;;;11.67;;
11076;SDS011;5591;42.626;23.380;2022-07-23T06:07:19;17.53;;;12.57;;
11076;SDS011;5591;42.626;23.380;2022-07-23T06:09:46;13.33;;;8.93;;
11076;SDS011;5591;42.626;23.380;2022-07-23T06:12:14;17.20;;;10.43;;
11076;SDS011;5591;42.626;23.380;2022-07-23T06:14:42;12.47;;;7.70;;
11076;SDS011;5591;42.626;23.380;2022-07-23T06:17:10;10.60;;;6.93;;
11076;SDS011;5591;42.626;23.380;2022-07-23T06:19:37;10.70;;;6.57;;
11076;SDS011;5591;42.626;23.380;2022-07-23T06:22:03;8.17;;;6.77;;
11076;SDS011;5591;42.626;23.380;2022-07-23T06:24:30;9.23;;;6.50;;
11076;SDS011;5591;42.626;23.380;2022-07-23T06:26:57;9.33;;;6.67;;
11076;SDS011;5591;42.626;23.380;2022-07-23T06:29:24;10.30;;;7.03;;
11076;SDS011;5591;42.626;23.380;2022-07-23T06:31:52;9.00;;;6.27;;
11076;SDS011;5591;42.626;23.380;2022-07-23T06:34:18;10.30;;;6.40;;
11076;SDS011;5591;42.626;23.380;2022-07-23T06:36:45;9.90;;;5.70;;
11076;SDS011;5591;42.626;23.380;2022-07-23T06:39:12;10.77;;;6.23;;
11076;SDS011;5591;42.626;23.380;2022-07-23T06:41:39;11.33;;;6.10;;
11076;SDS011;5591;42.626;23.380;2022-07-23T06:44:05;13.93;;;6.57;;
11076;SDS011;5591;42.626;23.380;2022-07-23T06:46:32;11.87;;;6.20;;
11076;SDS011;5591;42.626;23.380;2022-07-23T06:49:00;9.83;;;6.17;;
11076;SDS011;5591;42.626;23.380;2022-07-23T06:51:29;11.93;;;7.20;;
11076;SDS011;5591;42.626;23.380;2022-07-23T06:53:55;11.93;;;7.00;;
11076;SDS011;5591;42.626;23.380;2022-07-23T06:56:23;10.07;;;5.97;;
11076;SDS011;5591;42.626;23.380;2022-07-23T06:58:50;10.27;;;6.40;;
11076;SDS011;5591;42.626;23.380;2022-07-23T07:01:17;10.20;;;5.70;;
11076;SDS011;5591;42.626;23.380;2022-07-23T07:03:44;12.47;;;6.97;;
11076;SDS011;5591;42.626;23.380;2022-07-23T07:06:13;15.13;;;6.37;;
11076;SDS011;5591;42.626;23.380;2022-07-23T07:08:40;15.77;;;6.10;;
11076;SDS011;5591;42.626;23.380;2022-07-23T07:11:08;10.67;;;5.90;;
11076;SDS011;5591;42.626;23.380;2022-07-23T07:13:35;11.00;;;6.10;;
11076;SDS011;5591;42.626;23.380;2022-07-23T07:16:01;11.77;;;6.07;;
11076;SDS011;5591;42.626;23.380;2022-07-23T07:18:28;8.47;;;6.17;;
11076;SDS011;5591;42.626;23.380;2022-07-23T07:20:56;8.80;;;6.00;;
11076;SDS011;5591;42.626;23.380;2022-07-23T07:23:24;9.30;;;6.33;;
11076;SDS011;5591;42.626;23.380;2022-07-23T07:25:51;10.63;;;5.83;;
11076;SDS011;5591;42.626;23.380;2022-07-23T07:28:18;9.30;;;6.47;;
11076;SDS011;5591;42.626;23.380;2022-07-23T07:30:45;8.00;;;5.83;;
11076;SDS011;5591;42.626;23.380;2022-07-23T07:33:11;9.73;;;6.00;;
11076;SDS011;5591;42.626;23.380;2022-07-23T07:35:38;6.83;;;6.10;;
11076;SDS011;5591;42.626;23.380;2022-07-23T07:38:05;10.63;;;5.73;;
11076;SDS011;5591;42.626;23.380;2022-07-23T07:40:33;11.13;;;6.10;;
11076;SDS011;5591;42.626;23.380;2022-07-23T07:43:00;12.93;;;6.63;;
11076;SDS011;5591;42.626;23.380;2022-07-23T07:45:28;8.67;;;5.90;;
11076;SDS011;5591;42.626;23.380;2022-07-23T07:47:55;9.53;;;5.80;;
11076;SDS011;5591;42.626;23.380;2022-07-23T07:50:22;11.53;;;6.00;;
11076;SDS011;5591;42.626;23.380;2022-07-23T07:52:49;9.87;;;6.37;;
11076;SDS011;5591;42.626;23.380;2022-07-23T07:55:16;11.33;;;7.70;;
11076;SDS011;5591;42.626;23.380;2022-07-23T07:57:44;8.53;;;5.87;;
11076;SDS011;5591;42.626;23.380;2022-07-23T08:00:11;10.87;;;6.37;;
11076;SDS011;5591;42.626;23.380;2022-07-23T08:02:39;11.03;;;6.73;;
11076;SDS011;5591;42.626;23.380;2022-07-23T08:05:07;12.53;;;7.37;;
11076;SDS011;5591;42.626;23.380;2022-07-23T08:07:35;10.47;;;7.53;;
11076;SDS011;5591;42.626;23.380;2022-07-23T08:10:02;10.83;;;6.57;;
11076;SDS011;5591;42.626;23.380;2022-07-23T08:12:37;9.80;;;8.80;;
11076;SDS011;5591;42.626;23.380;2022-07-23T08:15:06;10.70;;;6.87;;
11076;SDS011;5591;42.626;23.380;2022-07-23T08:17:34;10.30;;;6.00;;
11076;SDS011;5591;42.626;23.380;2022-07-23T08:20:01;10.07;;;6.27;;
11076;SDS011;5591;42.626;23.380;2022-07-23T08:22:40;10.50;;;6.23;;
11076;SDS011;5591;42.626;23.380;2022-07-23T08:25:08;11.00;;;5.90;;
11076;SDS011;5591;42.626;23.380;2022-07-23T08:27:35;7.43;;;6.10;;
11076;SDS011;5591;42.626;23.380;2022-07-23T08:30:02;10.43;;;5.93;;
11076;SDS011;5591;42.626;23.380;2022-07-23T08:32:31;10.30;;;6.27;;
11076;SDS011;5591;42.626;23.380;2022-07-23T08:34:58;7.70;;;6.33;;
11076;SDS011;5591;42.626;23.380;2022-07-23T08:37:24;11.10;;;6.30;;
11076;SDS011;5591;42.626;23.380;2022-07-23T08:39:51;9.93;;;6.40;;
11076;SDS011;5591;42.626;23.380;2022-07-23T08:42:18;8.60;;;6.17;;
11076;SDS011;5591;42.626;23.380;2022-07-23T08:44:47;11.67;;;6.40;;
11076;SDS011;5591;42.626;23.380;2022-07-23T08:47:14;13.87;;;6.20;;
11076;SDS011;5591;42.626;23.380;2022-07-23T08:49:43;11.77;;;6.30;;
11076;SDS011;5591;42.626;23.380;2022-07-23T08:52:11;9.83;;;7.70;;
11076;SDS011;5591;42.626;23.380;2022-07-23T08:54:38;14.20;;;7.20;;
11076;SDS011;5591;42.626;23.380;2022-07-23T08:57:05;12.23;;;6.37;;
11076;SDS011;5591;42.626;23.380;2022-07-23T08:59:32;8.03;;;7.23;;
11076;SDS011;5591;42.626;23.380;2022-07-23T09:01:59;13.27;;;6.33;;
11076;SDS011;5591;42.626;23.380;2022-07-23T09:04:26;11.93;;;6.27;;
11076;SDS011;5591;42.626;23.380;2022-07-23T09:06:54;9.47;;;6.60;;
11076;SDS011;5591;42.626;23.380;2022-07-23T09:09:22;11.93;;;6.37;;
11076;SDS011;5591;42.626;23.380;2022-07-23T09:12:01;10.33;;;6.30;;
11076;SDS011;5591;42.626;23.380;2022-07-23T09:14:36;10.63;;;6.60;;
11076;SDS011;5591;42.626;23.380;2022-07-23T09:17:08;8.23;;;6.17;;
11076;SDS011;5591;42.626;23.380;2022-07-23T09:19:36;7.87;;;5.93;;
11076;SDS011;5591;42.626;23.380;2022-07-23T09:22:18;10.83;;;6.00;;
11076;SDS011;5591;42.626;23.380;2022-07-23T09:25:02;16.67;;;6.87;;
11076;SDS011;5591;42.626;23.380;2022-07-23T09:27:45;11.50;;;6.40;;
11076;SDS011;5591;42.626;23.380;2022-07-23T09:30:13;10.97;;;6.43;;
11076;SDS011;5591;42.626;23.380;2022-07-23T09:32:40;9.97;;;6.17;;
11076;SDS011;5591;42.626;23.380;2022-07-23T09:35:08;9.17;;;6.27;;
11076;SDS011;5591;42.626;23.380;2022-07-23T09:37:36;8.17;;;6.40;;
11076;SDS011;5591;42.626;23.380;2022-07-23T09:40:03;11.17;;;6.57;;
11076;SDS011;5591;42.626;23.380;2022-07-23T09:42:31;10.20;;;6.40;;
11076;SDS011;5591;42.626;23.380;2022-07-23T09:44:58;12.70;;;6.47;;
11076;SDS011;5591;42.626;23.380;2022-07-23T09:47:26;14.43;;;5.80;;
11076;SDS011;5591;42.626;23.380;2022-07-23T09:49:57;14.17;;;7.00;;
11076;SDS011;5591;42.626;23.380;2022-07-23T09:52:26;10.07;;;6.40;;
11076;SDS011;5591;42.626;23.380;2022-07-23T09:54:58;8.83;;;6.03;;
11076;SDS011;5591;42.626;23.380;2022-07-23T09:57:26;10.70;;;5.60;;
11076;SDS011;5591;42.626;23.380;2022-07-23T09:59:53;9.87;;;5.63;;
11076;SDS011;5591;42.626;23.380;2022-07-23T10:02:24;7.50;;;5.53;;
11076;SDS011;5591;42.626;23.380;2022-07-23T10:04:53;11.13;;;5.77;;
11076;SDS011;5591;42.626;23.380;2022-07-23T10:07:21;12.23;;;5.40;;
11076;SDS011;5591;42.626;23.380;2022-07-23T10:09:48;10.10;;;5.60;;
11076;SDS011;5591;42.626;23.380;2022-07-23T10:12:19;10.13;;;5.60;;
11076;SDS011;5591;42.626;23.380;2022-07-23T10:14:54;9.03;;;5.60;;
11076;SDS011;5591;42.626;23.380;2022-07-23T10:17:22;10.13;;;6.80;;
11076;SDS011;5591;42.626;23.380;2022-07-23T10:19:50;10.80;;;5.67;;
11076;SDS011;5591;42.626;23.380;2022-07-23T10:22:18;9.27;;;5.40;;
11076;SDS011;5591;42.626;23.380;2022-07-23T10:24:49;9.80;;;6.10;;
11076;SDS011;5591;42.626;23.380;2022-07-23T10:27:37;12.23;;;5.70;;
11076;SDS011;5591;42.626;23.380;2022-07-23T10:30:12;11.67;;;6.20;;
11076;SDS011;5591;42.626;23.380;2022-07-23T10:32:49;9.93;;;5.43;;
11076;SDS011;5591;42.626;23.380;2022-07-23T10:35:26;9.30;;;5.00;;
11076;SDS011;5591;42.626;23.380;2022-07-23T10:38:01;13.47;;;5.20;;
11076;SDS011;5591;42.626;23.380;2022-07-23T10:40:33;8.43;;;4.73;;
11076;SDS011;5591;42.626;23.380;2022-07-23T10:43:02;8.60;;;4.80;;
11076;SDS011;5591;42.626;23.380;2022-07-23T10:45:41;9.00;;;5.07;;
11076;SDS011;5591;42.626;23.380;2022-07-23T10:48:12;11.33;;;4.87;;
11076;SDS011;5591;42.626;23.380;2022-07-23T10:50:43;10.30;;;4.87;;
11076;SDS011;5591;42.626;23.380;2022-07-23T10:53:42;9.40;;;5.20;;
11076;SDS011;5591;42.626;23.380;2022-07-23T10:59:18;9.03;;;4.80;;
11076;SDS011;5591;42.626;23.380;2022-07-23T11:01:44;13.47;;;4.97;;
11076;SDS011;5591;42.626;23.380;2022-07-23T11:04:11;10.90;;;5.23;;
11076;SDS011;5591;42.626;23.380;2022-07-23T11:09:38;11.55;;;4.70;;
11076;SDS011;5591;42.626;23.380;2022-07-23T11:15:03;12.25;;;4.72;;
11076;SDS011;5591;42.626;23.380;2022-07-23T11:17:32;14.75;;;5.00;;
11076;SDS011;5591;42.626;23.380;2022-07-23T11:20:13;14.73;;;4.85;;
11076;SDS011;5591;42.626;23.380;2022-07-23T11:22:46;10.45;;;4.82;;
11076;SDS011;5591;42.626;23.380;2022-07-23T11:25:28;12.20;;;5.20;;
11076;SDS011;5591;42.626;23.380;2022-07-23T11:28:10;12.65;;;4.97;;
11076;SDS011;5591;42.626;23.380;2022-07-23T11:30:41;10.98;;;5.22;;
11076;SDS011;5591;42.626;23.380;2022-07-23T11:33:17;14.13;;;5.30;;
11076;SDS011;5591;42.626;23.380;2022-07-23T11:35:46;14.57;;;5.03;;
11076;SDS011;5591;42.626;23.380;2022-07-23T11:38:15;14.73;;;5.45;;
11076;SDS011;5591;42.626;23.380;2022-07-23T11:40:44;14.02;;;5.00;;
11076;SDS011;5591;42.626;23.380;2022-07-23T11:43:12;15.88;;;5.43;;
11076;SDS011;5591;42.626;23.380;2022-07-23T11:45:41;12.65;;;5.20;;
11076;SDS011;5591;42.626;23.380;2022-07-23T11:48:16;13.00;;;4.80;;
11076;SDS011;5591;42.626;23.380;2022-07-23T11:50:45;11.85;;;4.55;;
11076;SDS011;5591;42.626;23.380;2022-07-23T11:53:12;14.77;;;4.70;;
11076;SDS011;5591;42.626;23.380;2022-07-23T11:55:47;10.57;;;4.97;;
11076;SDS011;5591;42.626;23.380;2022-07-23T11:58:13;8.60;;;4.40;;
11076;SDS011;5591;42.626;23.380;2022-07-23T12:00:42;13.90;;;4.75;;
11076;SDS011;5591;42.626;23.380;2022-07-23T12:03:09;14.35;;;4.60;;
11076;SDS011;5591;42.626;23.380;2022-07-23T12:05:36;12.07;;;5.60;;
11076;SDS011;5591;42.626;23.380;2022-07-23T12:08:04;16.67;;;4.85;;
11076;SDS011;5591;42.626;23.380;2022-07-23T12:10:33;15.65;;;4.80;;
11076;SDS011;5591;42.626;23.380;2022-07-23T12:13:02;16.02;;;4.95;;
11076;SDS011;5591;42.626;23.380;2022-07-23T12:15:30;15.52;;;5.50;;
11076;SDS011;5591;42.626;23.380;2022-07-23T12:18:00;13.38;;;4.82;;
11076;SDS011;5591;42.626;23.380;2022-07-23T12:20:28;14.80;;;5.30;;
11076;SDS011;5591;42.626;23.380;2022-07-23T12:22:58;15.80;;;5.47;;
11076;SDS011;5591;42.626;23.380;2022-07-23T12:25:26;14.02;;;4.75;;
11076;SDS011;5591;42.626;23.380;2022-07-23T12:27:58;10.15;;;5.15;;
11076;SDS011;5591;42.626;23.380;2022-07-23T12:30:28;16.10;;;5.15;;
11076;SDS011;5591;42.626;23.380;2022-07-23T12:32:57;13.20;;;5.20;;
11076;SDS011;5591;42.626;23.380;2022-07-23T12:35:30;10.93;;;4.57;;
11076;SDS011;5591;42.626;23.380;2022-07-23T12:38:00;13.88;;;4.90;;
11076;SDS011;5591;42.626;23.380;2022-07-23T12:40:29;13.27;;;4.60;;
11076;SDS011;5591;42.626;23.380;2022-07-23T12:42:58;17.13;;;5.07;;
11076;SDS011;5591;42.626;23.380;2022-07-23T12:45:26;11.75;;;5.00;;
11076;SDS011;5591;42.626;23.380;2022-07-23T12:47:59;13.10;;;4.95;;
11076;SDS011;5591;42.626;23.380;2022-07-23T12:53:20;13.10;;;5.35;;
11076;SDS011;5591;42.626;23.380;2022-07-23T12:55:49;13.00;;;4.82;;
11076;SDS011;5591;42.626;23.380;2022-07-23T12:58:17;9.95;;;4.60;;
11076;SDS011;5591;42.626;23.380;2022-07-23T13:00:52;14.07;;;5.20;;
11076;SDS011;5591;42.626;23.380;2022-07-23T13:03:26;15.30;;;5.00;;
11076;SDS011;5591;42.626;23.380;2022-07-23T13:05:55;14.63;;;4.97;;
11076;SDS011;5591;42.626;23.380;2022-07-23T13:08:22;12.00;;;4.93;;
11076;SDS011;5591;42.626;23.380;2022-07-23T13:10:49;16.80;;;5.07;;
11076;SDS011;5591;42.626;23.380;2022-07-23T13:13:19;12.23;;;4.68;;
11076;SDS011;5591;42.626;23.380;2022-07-23T13:15:47;17.55;;;4.85;;
11076;SDS011;5591;42.626;23.380;2022-07-23T13:18:14;12.50;;;4.75;;
11076;SDS011;5591;42.626;23.380;2022-07-23T13:20:43;16.80;;;5.65;;
11076;SDS011;5591;42.626;23.380;2022-07-23T13:23:10;17.63;;;6.40;;
11076;SDS011;5591;42.626;23.380;2022-07-23T13:25:37;15.15;;;4.93;;
11076;SDS011;5591;42.626;23.380;2022-07-23T13:28:04;15.35;;;4.70;;
11076;SDS011;5591;42.626;23.380;2022-07-23T13:30:31;12.02;;;4.32;;
11076;SDS011;5591;42.626;23.380;2022-07-23T13:32:58;15.68;;;4.50;;
11076;SDS011;5591;42.626;23.380;2022-07-23T13:35:25;15.38;;;4.80;;
11076;SDS011;5591;42.626;23.380;2022-07-23T13:37:53;14.77;;;4.65;;
11076;SDS011;5591;42.626;23.380;2022-07-23T13:40:20;15.38;;;4.72;;
11076;SDS011;5591;42.626;23.380;2022-07-23T13:42:47;14.50;;;5.03;;
11076;SDS011;5591;42.626;23.380;2022-07-23T13:45:14;12.50;;;4.50;;
11076;SDS011;5591;42.626;23.380;2022-07-23T13:47:41;15.20;;;4.70;;
11076;SDS011;5591;42.626;23.380;2022-07-23T13:50:08;11.65;;;4.78;;
11076;SDS011;5591;42.626;23.380;2022-07-23T13:52:35;14.35;;;4.88;;
11076;SDS011;5591;42.626;23.380;2022-07-23T13:55:04;12.40;;;4.85;;
11076;SDS011;5591;42.626;23.380;2022-07-23T13:57:32;18.67;;;4.72;;
11076;SDS011;5591;42.626;23.380;2022-07-23T14:00:00;15.73;;;5.95;;
11076;SDS011;5591;42.626;23.380;2022-07-23T14:02:27;12.43;;;4.75;;
11076;SDS011;5591;42.626;23.380;2022-07-23T14:04:54;15.23;;;5.18;;
11076;SDS011;5591;42.626;23.380;2022-07-23T14:07:22;11.07;;;4.68;;
11076;SDS011;5591;42.626;23.380;2022-07-23T14:09:48;11.80;;;4.60;;
11076;SDS011;5591;42.626;23.380;2022-07-23T14:12:17;19.58;;;5.15;;
11076;SDS011;5591;42.626;23.380;2022-07-23T14:14:43;16.58;;;5.13;;
11076;SDS011;5591;42.626;23.380;2022-07-23T14:17:10;14.00;;;5.80;;
11076;SDS011;5591;42.626;23.380;2022-07-23T14:19:37;11.88;;;5.15;;
11076;SDS011;5591;42.626;23.380;2022-07-23T14:22:04;17.15;;;5.32;;
11076;SDS011;5591;42.626;23.380;2022-07-23T14:24:31;12.65;;;5.00;;
11076;SDS011;5591;42.626;23.380;2022-07-23T15:10:26;10.95;;;4.32;;
11076;SDS011;5591;42.626;23.380;2022-07-23T15:12:53;12.57;;;4.60;;
11076;SDS011;5591;42.626;23.380;2022-07-23T15:15:19;10.40;;;4.57;;
11076;SDS011;5591;42.626;23.380;2022-07-23T15:17:46;12.60;;;4.65;;
11076;SDS011;5591;42.626;23.380;2022-07-23T15:20:13;11.68;;;4.60;;
11076;SDS011;5591;42.626;23.380;2022-07-23T15:22:40;11.10;;;4.57;;
11076;SDS011;5591;42.626;23.380;2022-07-23T15:25:07;13.55;;;5.35;;
11076;SDS011;5591;42.626;23.380;2022-07-23T15:27:35;12.65;;;4.75;;
11076;SDS011;5591;42.626;23.380;2022-07-23T15:30:03;10.30;;;4.55;;
11076;SDS011;5591;42.626;23.380;2022-07-23T15:32:30;12.98;;;4.68;;
11076;SDS011;5591;42.626;23.380;2022-07-23T15:34:57;10.23;;;4.60;;
11076;SDS011;5591;42.626;23.380;2022-07-23T15:37:24;15.00;;;4.88;;
11076;SDS011;5591;42.626;23.380;2022-07-23T15:39:51;15.35;;;5.13;;
11076;SDS011;5591;42.626;23.380;2022-07-23T15:42:18;13.20;;;5.00;;